createdAt,value
2022-11-04T00:00:02.515Z,12.39
2022-11-04T00:01:03.048Z,12.37
2022-11-04T00:02:03.269Z,12.34
2022-11-04T00:03:02.811Z,12.32
2022-11-04T00:04:02.839Z,12.30
2022-11-04T00:05:03.166Z,12.28
2022-11-04T00:06:02.905Z,12.29
2022-11-04T00:07:03.339Z,12.28
2022-11-04T00:08:02.923Z,12.28
2022-11-04T00:09:03.290Z,12.27
2022-11-04T00:10:02.927Z,12.26
2022-11-04T00:11:03.214Z,12.26
2022-11-04T00:12:03.458Z,12.27
2022-11-04T00:13:03.091Z,12.24
2022-11-04T00:14:03.526Z,12.24
2022-11-04T00:15:03.184Z,12.24
2022-11-04T00:16:03.504Z,12.22
2022-11-04T00:17:02.917Z,12.21
2022-11-04T00:18:02.599Z,12.17
2022-11-04T00:19:02.967Z,12.16
2022-11-04T00:20:02.675Z,12.13
2022-11-04T00:21:02.414Z,12.08
2022-11-04T00:22:03.394Z,12.06
2022-11-04T00:23:03.077Z,12.02
2022-11-04T00:24:03.437Z,11.99
2022-11-04T00:25:03.118Z,11.99
2022-11-04T00:26:03.473Z,12.03
2022-11-04T00:27:02.903Z,12.02
2022-11-04T00:28:02.324Z,12.03
2022-11-04T00:29:02.664Z,12.06
2022-11-04T00:30:02.332Z,12.12
2022-11-04T00:31:02.696Z,12.12
2022-11-04T00:32:03.058Z,12.06
2022-11-04T00:33:02.484Z,12.02
2022-11-04T00:34:03.073Z,12.00
2022-11-04T00:35:03.134Z,11.99
2022-11-04T00:36:02.580Z,11.97
2022-11-04T00:37:02.751Z,11.97
2022-11-04T00:38:03.128Z,11.93
2022-11-04T00:39:02.800Z,11.92
2022-11-04T00:40:03.239Z,11.91
2022-11-04T00:41:02.912Z,11.90
2022-11-04T00:42:02.391Z,11.91
2022-11-04T00:43:02.754Z,11.92
2022-11-04T00:44:02.424Z,11.90
2022-11-04T00:45:02.812Z,11.89
2022-11-04T00:46:02.485Z,11.89
2022-11-04T00:47:03.546Z,11.89
2022-11-04T00:48:03.194Z,11.88
2022-11-04T00:49:02.950Z,11.83
2022-11-04T00:50:03.323Z,11.81
2022-11-04T00:51:03.114Z,11.79
2022-11-04T00:52:02.573Z,11.76
2022-11-04T00:53:02.937Z,11.75
2022-11-04T00:54:02.650Z,11.74
2022-11-04T00:55:03.127Z,11.74
2022-11-04T00:56:02.809Z,11.72
2022-11-04T00:57:03.293Z,11.69
2022-11-04T00:58:03.267Z,11.70
2022-11-04T00:59:03.781Z,11.71
2022-11-04T01:00:03.211Z,11.70
2022-11-04T01:01:03.792Z,11.67
2022-11-04T01:02:02.404Z,11.64
2022-11-04T01:03:02.252Z,11.62
2022-11-04T01:04:02.396Z,11.60
2022-11-04T01:05:02.812Z,11.57
2022-11-04T01:06:02.371Z,11.56
2022-11-04T01:07:02.853Z,11.54
2022-11-04T01:08:03.040Z,11.51
2022-11-04T01:09:02.707Z,11.50
2022-11-04T01:10:03.139Z,11.47
2022-11-04T01:11:02.875Z,11.46
2022-11-04T01:12:02.403Z,11.46
2022-11-04T01:13:02.566Z,11.44
2022-11-04T01:14:02.240Z,11.44
2022-11-04T01:15:02.712Z,11.45
2022-11-04T01:16:02.501Z,11.44
2022-11-04T01:17:02.900Z,11.44
2022-11-04T01:18:03.357Z,11.46
2022-11-04T01:19:03.323Z,11.45
2022-11-04T01:20:02.839Z,11.44
2022-11-04T01:21:03.286Z,11.42
2022-11-04T01:22:02.560Z,11.40
2022-11-04T01:23:02.260Z,11.38
2022-11-04T01:24:02.725Z,11.37
2022-11-04T01:25:02.386Z,11.35
2022-11-04T01:26:02.600Z,11.34
2022-11-04T01:27:03.072Z,11.32
2022-11-04T01:28:03.380Z,11.28
2022-11-04T01:29:02.882Z,11.25
2022-11-04T01:30:03.251Z,11.21
2022-11-04T01:31:03.005Z,11.23
2022-11-04T01:32:02.487Z,11.20
2022-11-04T01:33:02.245Z,11.18
2022-11-04T01:34:02.702Z,11.16
2022-11-04T01:35:02.402Z,11.15
2022-11-04T01:36:02.743Z,11.15
2022-11-04T01:37:02.777Z,11.13
2022-11-04T01:38:02.412Z,11.09
2022-11-04T01:39:02.875Z,11.08
2022-11-04T01:40:02.595Z,11.07
2022-11-04T01:41:03.053Z,11.07
2022-11-04T01:43:03.561Z,11.04
2022-11-04T01:44:02.959Z,11.04
2022-11-04T01:45:03.449Z,11.02
2022-11-04T01:46:03.265Z,11.01
2022-11-04T01:47:02.624Z,11.01
2022-11-04T01:48:02.432Z,11.02
2022-11-04T01:49:02.934Z,11.01
2022-11-04T01:50:02.661Z,11.02
2022-11-04T01:51:02.458Z,11.01
2022-11-04T01:52:02.864Z,10.96
2022-11-04T01:53:02.531Z,10.94
2022-11-04T01:54:02.990Z,10.94
2022-11-04T01:55:02.968Z,10.93
2022-11-04T01:56:02.753Z,10.93
2022-11-04T01:57:03.097Z,10.92
2022-11-04T01:58:02.851Z,10.90
2022-11-04T01:59:03.283Z,10.88
2022-11-04T02:00:03.053Z,10.85
2022-11-04T02:01:02.995Z,10.86
2022-11-04T02:02:02.637Z,10.87
2022-11-04T02:03:02.294Z,10.87
2022-11-04T02:04:02.618Z,10.84
2022-11-04T02:05:02.419Z,10.83
2022-11-04T02:06:02.768Z,10.84
2022-11-04T02:07:03.019Z,10.87
2022-11-04T02:08:02.758Z,10.88
2022-11-04T02:09:02.859Z,10.86
2022-11-04T02:10:02.546Z,10.85
2022-11-04T02:11:03.184Z,10.87
2022-11-04T02:12:02.469Z,10.88
2022-11-04T02:13:02.215Z,10.86
2022-11-04T02:14:02.590Z,10.84
2022-11-04T02:15:02.138Z,10.80
2022-11-04T02:16:02.637Z,10.78
2022-11-04T02:17:02.870Z,10.78
2022-11-04T02:18:02.671Z,10.75
2022-11-04T02:19:02.419Z,10.75
2022-11-04T02:20:02.729Z,10.73
2022-11-04T02:21:02.500Z,10.72
2022-11-04T02:22:02.952Z,10.71
2022-11-04T02:23:03.035Z,10.72
2022-11-04T02:24:02.731Z,10.72
2022-11-04T02:25:03.119Z,10.70
2022-11-04T02:26:02.570Z,10.71
2022-11-04T02:27:03.074Z,10.69
2022-11-04T02:28:02.747Z,10.68
2022-11-04T02:29:03.206Z,10.67
2022-11-04T02:30:02.764Z,10.66
2022-11-04T02:31:02.570Z,10.65
2022-11-04T02:32:02.706Z,10.64
2022-11-04T02:33:02.489Z,10.65
2022-11-04T02:34:02.221Z,10.63
2022-11-04T02:35:02.711Z,10.61
2022-11-04T02:36:02.689Z,10.58
2022-11-04T02:37:03.193Z,10.53
2022-11-04T02:38:02.611Z,10.51
2022-11-04T02:39:03.109Z,10.50
2022-11-04T02:40:02.861Z,10.50
2022-11-04T02:41:03.240Z,10.49
2022-11-04T02:42:02.467Z,10.45
2022-11-04T02:43:02.146Z,10.46
2022-11-04T02:44:01.927Z,10.46
2022-11-04T02:45:02.374Z,10.47
2022-11-04T02:46:02.053Z,10.45
2022-11-04T02:47:02.512Z,10.44
2022-11-04T02:48:02.401Z,10.43
2022-11-04T02:49:02.477Z,10.43
2022-11-04T02:50:02.275Z,10.42
2022-11-04T02:51:01.997Z,10.42
2022-11-04T02:52:03.066Z,10.43
2022-11-04T02:53:02.642Z,10.39
2022-11-04T02:54:02.475Z,10.38
2022-11-04T02:55:02.952Z,10.37
2022-11-04T02:56:02.985Z,10.35
2022-11-04T02:57:02.099Z,10.34
2022-11-04T02:58:02.527Z,10.35
2022-11-04T02:59:01.909Z,10.35
2022-11-04T03:00:02.379Z,10.34
2022-11-04T03:01:02.336Z,10.34
2022-11-04T03:02:02.795Z,10.35
2022-11-04T03:03:02.517Z,10.36
2022-11-04T03:04:02.242Z,10.35
2022-11-04T03:05:02.505Z,10.36
2022-11-04T03:06:02.300Z,10.34
2022-11-04T03:07:03.044Z,10.36
2022-11-04T03:08:03.298Z,10.38
2022-11-04T03:09:02.770Z,10.40
2022-11-04T03:10:02.818Z,10.39
2022-11-04T03:11:03.292Z,10.39
2022-11-04T03:12:03.735Z,10.43
2022-11-04T03:13:03.610Z,10.43
2022-11-04T03:14:03.370Z,10.45
2022-11-04T03:15:03.102Z,10.45
2022-11-04T03:16:03.500Z,10.43
2022-11-04T03:17:02.301Z,10.43
2022-11-04T03:18:02.646Z,10.43
2022-11-04T03:19:02.326Z,10.41
2022-11-04T03:20:02.490Z,10.40
2022-11-04T03:21:02.594Z,10.40
2022-11-04T03:22:02.384Z,10.41
2022-11-04T03:23:02.713Z,10.41
2022-11-04T03:24:02.684Z,10.40
2022-11-04T03:25:02.432Z,10.38
2022-11-04T03:26:02.850Z,10.38
2022-11-04T03:27:02.808Z,10.36
2022-11-04T03:28:02.645Z,10.38
2022-11-04T03:29:03.114Z,10.37
2022-11-04T03:30:03.024Z,10.37
2022-11-04T03:31:02.806Z,10.35
2022-11-04T03:32:02.199Z,10.34
2022-11-04T03:33:02.645Z,10.34
2022-11-04T03:34:02.525Z,10.32
2022-11-04T03:35:02.332Z,10.28
2022-11-04T03:36:02.375Z,10.27
2022-11-04T03:37:02.725Z,10.25
2022-11-04T03:38:03.069Z,10.25
2022-11-04T03:39:02.778Z,10.23
2022-11-04T03:40:03.273Z,10.21
2022-11-04T03:41:02.779Z,10.19
2022-11-04T03:42:02.219Z,10.16
2022-11-04T03:43:02.743Z,10.15
2022-11-04T03:44:02.293Z,10.14
2022-11-04T03:45:02.789Z,10.13
2022-11-04T03:46:02.319Z,10.11
2022-11-04T03:47:03.119Z,10.09
2022-11-04T03:48:02.841Z,10.08
2022-11-04T03:49:02.980Z,10.07
2022-11-04T03:50:02.703Z,10.05
2022-11-04T03:51:02.657Z,10.08
2022-11-04T03:52:03.141Z,10.09
2022-11-04T03:53:03.611Z,10.10
2022-11-04T03:54:03.518Z,10.11
2022-11-04T03:55:03.123Z,10.11
2022-11-04T03:56:02.925Z,10.09
2022-11-04T03:57:02.409Z,10.07
2022-11-04T03:58:02.315Z,10.10
2022-11-04T03:59:02.729Z,10.03
2022-11-04T04:00:02.892Z,9.98
2022-11-04T04:01:02.429Z,9.97
2022-11-04T04:02:01.828Z,9.93
2022-11-04T04:03:01.842Z,9.89
2022-11-04T04:04:02.290Z,9.91
2022-11-04T04:05:01.842Z,9.91
2022-11-04T04:06:02.272Z,9.88
2022-11-04T04:07:02.299Z,9.82
2022-11-04T04:08:02.614Z,9.78
2022-11-04T04:09:02.103Z,9.75
2022-11-04T04:10:02.520Z,9.71
2022-11-04T04:11:02.356Z,9.69
2022-11-04T04:12:02.759Z,9.69
2022-11-04T04:13:02.866Z,9.67
2022-11-04T04:14:02.618Z,9.64
2022-11-04T04:15:02.900Z,9.56
2022-11-04T04:16:03.144Z,9.53
2022-11-04T04:17:02.433Z,9.52
2022-11-04T04:18:02.613Z,9.53
2022-11-04T04:19:02.154Z,9.51
2022-11-04T04:20:02.287Z,9.47
2022-11-04T04:21:02.610Z,9.45
2022-11-04T04:22:02.089Z,9.42
2022-11-04T04:23:01.819Z,9.40
2022-11-04T04:24:01.962Z,9.42
2022-11-04T04:25:02.352Z,9.42
2022-11-04T04:26:01.765Z,9.40
2022-11-04T04:27:02.111Z,9.37
2022-11-04T04:28:02.099Z,9.33
2022-11-04T04:29:01.779Z,9.29
2022-11-04T04:30:01.795Z,9.28
2022-11-04T04:31:02.393Z,9.29
2022-11-04T04:32:02.423Z,9.27
2022-11-04T04:33:02.807Z,9.18
2022-11-04T04:34:02.225Z,9.13
2022-11-04T04:35:02.538Z,9.10
2022-11-04T04:36:02.406Z,9.06
2022-11-04T04:37:02.697Z,9.07
2022-11-04T04:38:02.998Z,9.07
2022-11-04T04:39:03.011Z,9.06
2022-11-04T04:40:03.011Z,9.07
2022-11-04T04:41:02.426Z,9.06
2022-11-04T04:42:02.824Z,9.04
2022-11-04T04:43:03.100Z,9.06
2022-11-04T04:44:02.505Z,8.97
2022-11-04T04:45:02.909Z,8.96
2022-11-04T04:46:02.494Z,8.97
2022-11-04T04:47:02.904Z,8.92
2022-11-04T04:48:02.617Z,8.92
2022-11-04T04:49:02.751Z,8.93
2022-11-04T04:50:03.049Z,8.92
2022-11-04T04:51:03.178Z,8.83
2022-11-04T04:52:02.346Z,8.76
2022-11-04T04:53:02.044Z,8.75
2022-11-04T04:54:02.497Z,8.75
2022-11-04T04:55:02.266Z,8.69
2022-11-04T04:56:02.002Z,8.70
2022-11-04T04:57:02.550Z,8.75
2022-11-04T04:58:02.684Z,8.73
2022-11-04T04:59:02.429Z,8.75
2022-11-04T05:00:02.797Z,8.70
2022-11-04T05:01:02.574Z,8.67
2022-11-04T05:02:02.083Z,8.68
2022-11-04T05:03:01.701Z,8.65
2022-11-04T05:04:02.121Z,8.61
2022-11-04T05:05:01.889Z,8.61
2022-11-04T05:06:01.979Z,8.58
2022-11-04T05:07:02.241Z,8.58
2022-11-04T05:08:01.808Z,8.60
2022-11-04T05:09:02.039Z,8.57
2022-11-04T05:10:02.377Z,8.57
2022-11-04T05:11:01.745Z,8.58
2022-11-04T05:12:02.786Z,8.55
2022-11-04T05:13:02.967Z,8.50
2022-11-04T05:14:02.377Z,8.41
2022-11-04T05:15:03.010Z,8.30
2022-11-04T05:16:02.447Z,8.23
2022-11-04T05:17:02.514Z,8.15
2022-11-04T05:18:02.674Z,8.09
2022-11-04T05:19:02.543Z,8.06
2022-11-04T05:20:02.198Z,8.09
2022-11-04T05:21:02.538Z,8.10
2022-11-04T05:22:02.873Z,8.12
2022-11-04T05:23:02.514Z,8.15
2022-11-04T05:24:02.786Z,8.21
2022-11-04T05:25:02.394Z,8.23
2022-11-04T05:26:02.705Z,8.26
2022-11-04T05:27:02.256Z,8.24
2022-11-04T05:28:01.650Z,8.16
2022-11-04T05:29:01.914Z,8.10
2022-11-04T05:30:02.305Z,8.08
2022-11-04T05:31:01.948Z,8.12
2022-11-04T05:32:02.508Z,8.13
2022-11-04T05:33:04.832Z,8.12
2022-11-04T05:34:02.375Z,8.15
2022-11-04T05:35:02.105Z,8.18
2022-11-04T05:36:01.873Z,8.20
2022-11-04T05:37:02.378Z,8.16
2022-11-04T05:38:02.699Z,8.18
2022-11-04T05:39:02.969Z,8.15
2022-11-04T05:40:02.420Z,8.13
2022-11-04T05:41:02.487Z,8.15
2022-11-04T05:42:02.068Z,8.07
2022-11-04T05:43:02.032Z,8.02
2022-11-04T05:44:02.317Z,8.01
2022-11-04T05:45:02.076Z,7.98
2022-11-04T05:46:02.400Z,7.92
2022-11-04T05:47:02.729Z,7.89
2022-11-04T05:48:02.181Z,7.82
2022-11-04T05:49:02.658Z,7.76
2022-11-04T05:50:02.102Z,7.77
2022-11-04T05:51:02.453Z,7.84
2022-11-04T05:52:01.714Z,7.79
2022-11-04T05:53:02.191Z,7.78
2022-11-04T05:54:01.752Z,7.82
2022-11-04T05:55:02.091Z,7.83
2022-11-04T05:56:01.734Z,7.86
2022-11-04T05:57:02.579Z,7.78
2022-11-04T05:58:02.279Z,7.73
2022-11-04T05:59:02.528Z,7.74
2022-11-04T06:00:02.183Z,7.82
2022-11-04T06:01:02.264Z,7.83
2022-11-04T06:02:01.873Z,7.86
2022-11-04T06:03:02.064Z,7.84
2022-11-04T06:04:01.738Z,7.87
2022-11-04T06:05:01.812Z,7.89
2022-11-04T06:06:01.866Z,7.90
2022-11-04T06:07:02.636Z,7.92
2022-11-04T06:08:02.848Z,7.94
2022-11-04T06:09:02.285Z,7.93
2022-11-04T06:10:02.550Z,7.95
2022-11-04T06:11:02.355Z,7.92
2022-11-04T06:12:01.871Z,7.89
2022-11-04T06:13:02.353Z,7.85
2022-11-04T06:14:01.975Z,7.81
2022-11-04T06:15:01.678Z,7.85
2022-11-04T06:16:01.723Z,7.84
2022-11-04T06:17:02.832Z,7.85
2022-11-04T06:18:02.321Z,7.88
2022-11-04T06:19:06.065Z,7.88
2022-11-04T06:20:02.613Z,7.86
2022-11-04T06:21:02.339Z,7.88
2022-11-04T06:22:01.752Z,7.92
2022-11-04T06:23:02.080Z,7.94
2022-11-04T06:24:01.656Z,7.97
2022-11-04T06:25:02.204Z,7.98
2022-11-04T06:26:01.660Z,7.95
2022-11-04T06:27:02.165Z,7.94
2022-11-04T06:28:02.555Z,7.92
2022-11-04T06:29:02.581Z,7.92
2022-11-04T06:30:02.135Z,7.90
2022-11-04T06:31:01.960Z,7.89
2022-11-04T06:32:02.540Z,7.90
2022-11-04T06:33:02.999Z,7.92
2022-11-04T06:34:02.875Z,7.95
2022-11-04T06:35:02.586Z,7.98
2022-11-04T06:36:02.321Z,7.96
2022-11-04T06:37:01.829Z,7.97
2022-11-04T06:38:01.617Z,8.00
2022-11-04T06:39:04.861Z,7.92
2022-11-04T06:40:02.106Z,7.85
2022-11-04T06:41:01.930Z,7.81
2022-11-04T06:42:02.899Z,7.76
2022-11-04T06:43:01.770Z,7.74
2022-11-04T06:44:02.291Z,7.69
2022-11-04T06:45:01.995Z,7.68
2022-11-04T06:46:01.751Z,7.66
2022-11-04T06:47:02.205Z,7.62
2022-11-04T06:48:01.951Z,7.59
2022-11-04T06:49:02.383Z,7.55
2022-11-04T06:50:02.135Z,7.51
2022-11-04T06:51:02.555Z,7.49
2022-11-04T06:52:01.700Z,7.51
2022-11-04T06:53:01.991Z,7.55
2022-11-04T06:54:01.619Z,7.62
2022-11-04T06:55:01.412Z,7.65
2022-11-04T06:56:01.547Z,7.69
2022-11-04T06:57:02.031Z,7.69
2022-11-04T06:58:01.801Z,7.76
2022-11-04T06:59:02.319Z,7.80
2022-11-04T07:00:01.892Z,7.80
2022-11-04T07:01:03.901Z,7.79
2022-11-04T07:02:02.335Z,7.76
2022-11-04T07:03:02.154Z,7.77
2022-11-04T07:04:01.927Z,7.76
2022-11-04T07:05:02.424Z,7.79
2022-11-04T07:06:02.118Z,7.87
2022-11-04T07:07:02.641Z,7.90
2022-11-04T07:08:02.283Z,7.94
2022-11-04T07:09:02.454Z,7.98
2022-11-04T07:10:02.953Z,8.02
2022-11-04T07:11:02.491Z,8.04
2022-11-04T07:12:02.684Z,8.04
2022-11-04T07:13:03.053Z,8.09
2022-11-04T07:14:03.073Z,8.12
2022-11-04T07:15:02.897Z,8.13
2022-11-04T07:16:02.673Z,8.17
2022-11-04T07:17:02.445Z,8.22
2022-11-04T07:18:02.223Z,8.26
2022-11-04T07:19:02.034Z,8.31
2022-11-04T07:20:02.623Z,8.38
2022-11-04T07:21:07.055Z,8.40
2022-11-04T07:22:02.498Z,8.44
2022-11-04T07:23:02.250Z,8.47
2022-11-04T07:24:02.483Z,8.51
2022-11-04T07:25:02.591Z,8.52
2022-11-04T07:26:02.473Z,8.52
2022-11-04T07:27:02.954Z,8.56
2022-11-04T07:28:03.003Z,8.61
2022-11-04T07:29:02.645Z,8.65
2022-11-04T07:30:03.072Z,8.70
2022-11-04T07:31:02.747Z,8.73
2022-11-04T07:32:02.553Z,8.76
2022-11-04T07:33:02.434Z,8.82
2022-11-04T07:34:02.264Z,8.84
2022-11-04T07:35:02.539Z,8.86
2022-11-04T07:36:02.390Z,8.93
2022-11-04T07:37:02.767Z,8.95
2022-11-04T07:38:02.689Z,9.02
2022-11-04T07:39:02.420Z,9.06
2022-11-04T07:40:02.949Z,9.12
2022-11-04T07:41:02.366Z,9.14
2022-11-04T07:42:02.703Z,9.13
2022-11-04T07:43:02.547Z,9.14
2022-11-04T07:44:03.043Z,9.18
2022-11-04T07:45:02.643Z,9.21
2022-11-04T07:46:02.506Z,9.26
2022-11-04T07:47:02.247Z,9.29
2022-11-04T07:48:02.047Z,9.35
2022-11-04T07:49:01.820Z,9.37
2022-11-04T07:50:06.690Z,9.39
2022-11-04T07:51:02.321Z,9.39
2022-11-04T07:52:02.740Z,9.44
2022-11-04T07:53:02.450Z,9.46
2022-11-04T07:54:02.788Z,9.46
2022-11-04T07:55:02.673Z,9.47
2022-11-04T07:56:02.416Z,9.50
2022-11-04T07:57:03.060Z,9.51
2022-11-04T07:58:03.068Z,9.53
2022-11-04T07:59:02.987Z,9.54
2022-11-04T08:00:02.763Z,9.54
2022-11-04T08:01:02.622Z,9.52
2022-11-04T08:02:02.865Z,9.51
2022-11-04T08:03:02.756Z,9.55
2022-11-04T08:04:02.397Z,9.58
2022-11-04T08:05:02.163Z,9.62
2022-11-04T08:06:02.716Z,9.65
2022-11-04T08:07:02.888Z,9.68
2022-11-04T08:08:02.304Z,9.73
2022-11-04T08:09:02.559Z,9.78
2022-11-04T08:10:02.352Z,9.80
2022-11-04T08:11:02.917Z,9.84
2022-11-04T08:12:02.145Z,9.86
2022-11-04T08:13:01.886Z,9.92
2022-11-04T08:14:01.761Z,9.97
2022-11-04T08:15:01.571Z,9.99
2022-11-04T08:16:01.720Z,10.00
2022-11-04T08:17:02.203Z,10.05
2022-11-04T08:18:02.114Z,10.08
2022-11-04T08:19:01.872Z,10.10
2022-11-04T08:20:01.744Z,10.14
2022-11-04T08:21:01.977Z,10.17
2022-11-04T08:22:02.829Z,10.19
2022-11-04T08:23:02.291Z,10.20
2022-11-04T08:24:02.248Z,10.23
2022-11-04T08:25:02.486Z,10.22
2022-11-04T08:26:02.922Z,10.22
2022-11-04T08:27:01.944Z,10.24
2022-11-04T08:28:02.006Z,10.26
2022-11-04T08:29:02.614Z,10.30
2022-11-04T08:30:02.243Z,10.32
2022-11-04T08:31:02.301Z,10.37
2022-11-04T08:32:02.438Z,10.43
2022-11-04T08:33:02.938Z,10.44
2022-11-04T08:34:02.526Z,10.47
2022-11-04T08:35:02.462Z,10.49
2022-11-04T08:36:02.757Z,10.51
2022-11-04T08:37:03.089Z,10.55
2022-11-04T08:38:02.790Z,10.56
2022-11-04T08:39:08.962Z,10.57
2022-11-04T08:40:02.832Z,10.61
2022-11-04T08:41:02.902Z,10.62
2022-11-04T08:42:02.199Z,10.66
2022-11-04T08:43:02.461Z,10.71
2022-11-04T08:44:02.183Z,10.72
2022-11-04T08:45:02.661Z,10.75
2022-11-04T08:46:02.777Z,10.78
2022-11-04T08:47:02.317Z,10.81
2022-11-04T08:48:05.727Z,10.84
2022-11-04T08:49:07.067Z,10.89
2022-11-04T08:50:02.475Z,10.93
2022-11-04T08:51:02.275Z,10.99
2022-11-04T08:52:01.924Z,11.02
2022-11-04T08:53:01.912Z,11.08
2022-11-04T08:54:02.011Z,11.12
2022-11-04T08:55:02.175Z,11.19
2022-11-04T08:56:02.017Z,11.24
2022-11-04T08:57:02.145Z,11.28
2022-11-04T08:58:02.647Z,11.33
2022-11-04T08:59:02.249Z,11.36
2022-11-04T09:00:02.218Z,11.39
2022-11-04T09:01:02.597Z,11.44
2022-11-04T09:02:02.647Z,11.46
2022-11-04T09:03:02.716Z,11.48
2022-11-04T09:04:02.491Z,11.50
2022-11-04T09:05:02.755Z,11.55
2022-11-04T09:06:02.531Z,11.55
2022-11-04T09:07:07.721Z,11.58
2022-11-04T09:08:02.540Z,11.64
2022-11-04T09:09:02.313Z,11.65
2022-11-04T09:10:02.287Z,11.66
2022-11-04T09:11:02.157Z,11.68
2022-11-04T09:12:02.467Z,11.68
2022-11-04T09:13:02.576Z,11.68
2022-11-04T09:14:02.451Z,11.66
2022-11-04T09:15:02.400Z,11.67
2022-11-04T09:16:02.901Z,11.67
2022-11-04T09:17:02.502Z,11.63
2022-11-04T09:18:02.597Z,11.60
2022-11-04T09:19:02.443Z,11.62
2022-11-04T09:20:02.760Z,11.62
2022-11-04T09:21:02.662Z,11.63
2022-11-04T09:22:02.605Z,11.63
2022-11-04T09:23:02.859Z,11.67
2022-11-04T09:24:02.786Z,11.69
2022-11-04T09:25:02.480Z,11.71
2022-11-04T09:26:02.973Z,11.75
2022-11-04T09:27:02.852Z,11.80
2022-11-04T09:28:03.329Z,11.81
2022-11-04T09:29:03.274Z,11.86
2022-11-04T09:30:02.979Z,11.88
2022-11-04T09:31:02.775Z,11.91
2022-11-04T09:32:03.130Z,11.93
2022-11-04T09:33:03.035Z,11.93
2022-11-04T09:34:03.053Z,11.97
2022-11-04T09:35:02.899Z,12.01
2022-11-04T09:36:02.820Z,12.05
2022-11-04T09:37:02.972Z,12.09
2022-11-04T09:38:03.256Z,12.11
2022-11-04T09:39:03.381Z,12.18
2022-11-04T09:40:03.471Z,12.21
2022-11-04T09:41:03.061Z,12.26
2022-11-04T09:42:02.516Z,12.31
2022-11-04T09:43:02.423Z,12.35
2022-11-04T09:44:02.284Z,12.37
2022-11-04T09:46:02.409Z,12.48
2022-11-04T09:47:03.059Z,12.55
2022-11-04T09:48:02.761Z,12.65
2022-11-04T09:49:02.560Z,12.71
2022-11-04T09:50:02.739Z,12.82
2022-11-04T09:51:02.664Z,12.91
2022-11-04T09:52:02.884Z,12.94
2022-11-04T09:53:02.815Z,12.99
2022-11-04T09:54:03.072Z,13.04
2022-11-04T09:55:02.663Z,13.08
2022-11-04T09:56:03.127Z,13.15
2022-11-04T09:57:02.958Z,13.16
2022-11-04T09:58:02.983Z,13.16
2022-11-04T09:59:02.780Z,13.16
2022-11-04T10:00:02.737Z,13.16
2022-11-04T10:01:02.981Z,13.20
2022-11-04T10:02:02.245Z,13.24
2022-11-04T10:03:02.300Z,13.27
2022-11-04T10:04:01.979Z,13.29
2022-11-04T10:05:02.207Z,13.30
2022-11-04T10:06:02.434Z,13.34
2022-11-04T10:07:02.261Z,13.35
2022-11-04T10:08:02.146Z,13.39
2022-11-04T10:09:02.609Z,13.36
2022-11-04T10:10:02.308Z,13.38
2022-11-04T10:11:02.123Z,13.40
2022-11-04T10:12:02.569Z,13.38
2022-11-04T10:13:02.273Z,13.42
2022-11-04T10:14:02.553Z,13.48
2022-11-04T10:15:02.514Z,13.54
2022-11-04T10:16:02.381Z,13.57
2022-11-04T10:17:02.562Z,13.62
2022-11-04T10:18:02.761Z,13.63
2022-11-04T10:19:02.711Z,13.65
2022-11-04T10:20:02.761Z,13.63
2022-11-04T10:21:02.646Z,13.62
2022-11-04T10:22:02.156Z,13.61
2022-11-04T10:23:02.001Z,13.64
2022-11-04T10:24:01.826Z,13.63
2022-11-04T10:25:01.894Z,13.66
2022-11-04T10:26:02.249Z,13.65
2022-11-04T10:27:02.770Z,13.67
2022-11-04T10:28:02.761Z,13.68
2022-11-04T10:29:02.465Z,13.70
2022-11-04T10:30:03.045Z,13.71
2022-11-04T10:31:02.744Z,13.71
2022-11-04T10:32:02.143Z,13.73
2022-11-04T10:33:02.002Z,13.71
2022-11-04T10:34:02.021Z,13.75
2022-11-04T10:35:01.884Z,13.80
2022-11-04T10:36:01.747Z,13.79
2022-11-04T10:37:02.273Z,13.81
2022-11-04T10:38:02.086Z,13.80
2022-11-04T10:39:01.965Z,13.79
2022-11-04T10:40:02.555Z,13.81
2022-11-04T10:41:07.038Z,13.83
2022-11-04T10:42:02.687Z,13.85
2022-11-04T10:43:02.829Z,13.85
2022-11-04T10:44:02.791Z,13.87
2022-11-04T10:45:02.613Z,13.89
2022-11-04T10:46:02.562Z,13.91
2022-11-04T10:47:02.176Z,13.92
2022-11-04T10:48:02.153Z,13.94
2022-11-04T10:49:02.112Z,13.98
2022-11-04T10:51:01.979Z,14.05
2022-11-04T10:52:02.835Z,14.05
2022-11-04T10:53:02.628Z,14.06
2022-11-04T10:54:02.649Z,14.03
2022-11-04T10:55:02.338Z,14.06
2022-11-04T10:56:02.988Z,14.08
2022-11-04T10:57:02.313Z,14.11
2022-11-04T10:58:01.816Z,14.14
2022-11-04T10:59:01.967Z,14.15
2022-11-04T11:00:01.779Z,14.17
2022-11-04T11:01:02.433Z,14.21
2022-11-04T11:02:02.440Z,14.23
2022-11-04T11:03:02.438Z,14.26
2022-11-04T11:04:02.313Z,14.23
2022-11-04T11:05:01.770Z,14.23
2022-11-04T11:06:02.327Z,14.23
2022-11-04T11:07:02.872Z,14.26
2022-11-04T11:08:02.710Z,14.25
2022-11-04T11:09:02.551Z,14.28
2022-11-04T11:10:02.760Z,14.29
2022-11-04T11:11:02.564Z,14.29
2022-11-04T11:12:02.070Z,14.31
2022-11-04T11:13:01.965Z,14.34
2022-11-04T11:14:01.810Z,14.35
2022-11-04T11:15:01.586Z,14.40
2022-11-04T11:16:02.189Z,14.48
2022-11-04T11:17:02.128Z,14.57
2022-11-04T11:18:01.964Z,14.63
2022-11-04T11:19:01.812Z,14.61
2022-11-04T11:20:02.169Z,14.60
2022-11-04T11:21:02.221Z,14.64
2022-11-04T11:22:02.606Z,14.69
2022-11-04T11:23:05.028Z,14.74
2022-11-04T11:24:02.194Z,14.79
2022-11-04T11:25:02.407Z,14.73
2022-11-04T11:26:02.332Z,14.71
2022-11-04T11:27:02.649Z,14.77
2022-11-04T11:28:02.282Z,14.83
2022-11-04T11:29:02.543Z,14.86
2022-11-04T11:30:02.500Z,14.90
2022-11-04T11:31:02.385Z,14.92
2022-11-04T11:32:02.338Z,14.91
2022-11-04T11:33:01.988Z,14.92
2022-11-04T11:34:01.835Z,14.88
2022-11-04T11:35:01.664Z,14.87
2022-11-04T11:36:02.310Z,14.86
2022-11-04T11:37:02.457Z,14.89
2022-11-04T11:38:01.832Z,14.91
2022-11-04T11:39:02.457Z,14.96
2022-11-04T11:40:02.406Z,15.04
2022-11-04T11:41:23.919Z,15.13
2022-11-04T11:42:02.773Z,15.21
2022-11-04T11:43:02.737Z,15.24
2022-11-04T11:44:02.604Z,15.26
2022-11-04T11:45:02.306Z,15.30
2022-11-04T11:46:02.599Z,15.33
2022-11-04T11:47:01.560Z,15.37
2022-11-04T11:48:02.092Z,15.33
2022-11-04T11:49:01.983Z,15.29
2022-11-04T11:50:01.888Z,15.23
2022-11-04T11:51:01.708Z,15.21
2022-11-04T11:52:01.588Z,15.22
2022-11-04T11:53:01.901Z,15.29
2022-11-04T11:54:01.707Z,15.34
2022-11-04T11:55:02.195Z,15.40
2022-11-04T11:56:01.697Z,15.42
2022-11-04T11:57:22.343Z,15.39
2022-11-04T12:01:08.173Z,15.51
2022-11-04T12:02:03.651Z,15.53
2022-11-04T12:03:03.729Z,15.58
2022-11-04T12:06:19.519Z,15.77
2022-11-04T12:09:20.595Z,16.02
2022-11-04T12:10:02.459Z,16.14
2022-11-04T12:11:03.101Z,16.25
2022-11-04T12:12:02.733Z,16.29
2022-11-04T12:13:03.354Z,16.27
2022-11-04T12:14:03.265Z,16.32
2022-11-04T12:15:02.966Z,16.40
2022-11-04T12:16:02.781Z,16.47
2022-11-04T12:17:03.145Z,16.59
2022-11-04T12:18:03.403Z,16.67
2022-11-04T12:19:03.793Z,16.60
2022-11-04T12:20:03.485Z,16.59
2022-11-04T12:21:03.643Z,16.56
2022-11-04T12:22:03.787Z,16.64
2022-11-04T12:23:03.474Z,16.69
2022-11-04T12:24:03.077Z,16.71
2022-11-04T12:25:03.122Z,16.73
2022-11-04T12:26:03.060Z,16.78
2022-11-04T12:27:02.892Z,16.85
2022-11-04T12:28:03.063Z,16.92
2022-11-04T12:29:03.215Z,16.96
2022-11-04T12:30:03.480Z,16.97
2022-11-04T12:31:03.737Z,17.03
2022-11-04T12:32:03.595Z,17.09
2022-11-04T12:33:03.180Z,17.19
2022-11-04T12:34:02.944Z,17.24
2022-11-04T12:35:02.876Z,17.27
2022-11-04T12:36:03.123Z,17.35
2022-11-04T12:37:02.835Z,17.46
2022-11-04T12:38:03.880Z,17.58
2022-11-04T12:39:03.592Z,17.65
2022-11-04T12:40:03.337Z,17.64
2022-11-04T12:41:34.356Z,17.64
2022-11-04T12:43:03.201Z,17.66
2022-11-04T12:44:03.087Z,17.73
2022-11-04T12:45:02.931Z,17.82
2022-11-04T12:46:03.128Z,17.79
2022-11-04T12:47:02.852Z,17.76
2022-11-04T12:48:03.428Z,17.75
2022-11-04T12:49:07.265Z,17.76
2022-11-04T12:50:03.573Z,17.79
2022-11-04T12:51:03.566Z,17.77
2022-11-04T12:52:03.614Z,17.63
2022-11-04T12:53:03.297Z,17.44
2022-11-04T12:54:03.253Z,17.31
2022-11-04T12:55:03.837Z,17.30
2022-11-04T12:56:03.506Z,17.31
2022-11-04T12:57:03.482Z,17.38
2022-11-04T12:58:02.971Z,17.49
2022-11-04T12:59:03.259Z,17.57
2022-11-04T13:00:03.107Z,17.69
2022-11-04T13:01:03.203Z,17.79
2022-11-04T13:02:03.351Z,17.85
2022-11-04T13:03:03.646Z,17.92
2022-11-04T13:04:03.556Z,17.86
2022-11-04T13:05:03.995Z,17.79
2022-11-04T13:06:03.750Z,17.60
2022-11-04T13:07:03.582Z,17.35
2022-11-04T13:08:03.314Z,17.19
2022-11-04T13:09:03.122Z,17.17
2022-11-04T13:10:03.026Z,17.14
2022-11-04T13:11:03.524Z,17.11